Time;durP1;ratioP1;P1;durP2;ratioP2;P2;SDS_P1;SDS_P2;PMS_P1;PMS_P2;Temp;Humidity;BMP_temperature;BMP_pressure;BME280_temperature;BME280_humidity;BME280_pressure;Samples;Min_cycle;Max_cycle;Signal;HPM_P1;HPM_P2
2022/02/07 00:00:02;;;;;;;14.19;12.83;;;;;;;2.70;67.59;100671.30;436857;119;922609;-76
2022/02/07 00:01:16;;;;;;;14.43;12.55;;;;;;;2.70;67.47;100671.30;437061;119;922901;-76
2022/02/07 00:02:07;;;;;;;11.13;10.07;;;;;;;2.70;67.44;100677.49;433989;119;923216;-76
2022/02/07 00:04:22;;;;;;;10.89;9.90;;;;;;;2.73;67.20;100671.80;437937;119;923036;-76
2022/02/07 00:05:25;;;;;;;10.67;9.68;;;;;;;2.74;67.21;100667.27;438230;119;922719;-76
2022/02/07 00:06:27;;;;;;;11.60;9.90;;;;;;;2.77;67.18;100664.23;438262;119;922963;-76
2022/02/07 00:07:30;;;;;;;10.49;9.30;;;;;;;2.79;67.14;100660.39;439123;119;923180;-76
2022/02/07 00:08:34;;;;;;;11.73;8.77;;;;;;;2.82;67.07;100665.44;438898;119;922604;-75
2022/02/07 00:09:38;;;;;;;11.52;9.66;;;;;;;2.84;67.01;100663.44;436939;119;922506;-75
2022/02/07 00:10:41;;;;;;;11.10;10.04;;;;;;;2.87;66.83;100663.09;435617;119;922640;-77
2022/02/07 00:11:44;;;;;;;11.41;10.28;;;;;;;2.89;66.73;100668.33;435363;119;923398;-76
2022/02/07 00:12:48;;;;;;;11.64;10.53;;;;;;;2.90;66.68;100668.17;435065;119;923099;-76
2022/02/07 00:13:51;;;;;;;11.37;10.26;;;;;;;2.91;66.55;100658.24;435872;119;922624;-76
2022/02/07 00:14:54;;;;;;;11.56;10.47;;;;;;;2.91;66.39;100656.39;436168;119;922585;-76
2022/02/07 00:15:57;;;;;;;12.70;10.68;;;;;;;2.89;66.24;100650.32;436165;119;922524;-76
2022/02/07 00:17:01;;;;;;;12.43;11.22;;;;;;;2.88;66.23;100659.40;436265;119;922599;-76
2022/02/07 00:18:06;;;;;;;10.93;9.86;;;;;;;2.86;66.19;100656.05;436245;119;930550;-76
2022/02/07 00:19:19;;;;;;;11.30;10.20;;;;;;;2.85;66.20;100662.44;436350;119;923153;-76
2022/02/07 00:20:18;;;;;;;11.61;10.44;;;;;;;2.84;66.20;100652.66;435585;119;923403;-76
2022/02/07 00:21:20;;;;;;;11.11;10.19;;;;;;;2.83;66.17;100656.36;448024;117;922714;-77
2022/02/07 00:22:24;;;;;;;12.60;11.33;;;;;;;2.82;66.22;100651.97;456329;114;924046;-76
2022/02/07 00:23:27;;;;;;;12.56;11.39;;;;;;;2.81;66.20;100650.28;456542;114;922620;-76
2022/02/07 00:24:30;;;;;;;12.09;10.95;;;;;;;2.82;66.27;100660.05;456544;114;922697;-76
2022/02/07 00:25:33;;;;;;;12.06;11.03;;;;;;;2.82;66.28;100654.66;456751;116;922669;-76
2022/02/07 00:26:36;;;;;;;12.82;11.54;;;;;;;2.83;66.29;100645.58;456475;113;923248;-76
2022/02/07 00:27:39;;;;;;;12.45;10.87;;;;;;;2.82;66.26;100654.66;456970;114;922741;-76
2022/02/07 00:28:42;;;;;;;11.36;10.26;;;;;;;2.83;66.28;100645.58;457231;116;922409;-76
2022/02/07 00:29:46;;;;;;;12.53;10.59;;;;;;;2.83;66.29;100645.58;457277;114;922662;-76
2022/02/07 00:30:49;;;;;;;11.68;10.52;;;;;;;2.84;66.25;100641.89;456635;113;922504;-77
2022/02/07 00:31:52;;;;;;;11.87;10.59;;;;;;;2.83;66.22;100642.89;456964;114;922681;-77
2022/02/07 00:32:55;;;;;;;11.54;10.15;;;;;;;2.83;66.21;100645.58;456627;115;922516;-76
2022/02/07 00:33:59;;;;;;;12.48;11.23;;;;;;;2.82;66.27;100646.59;456799;113;922358;-76
2022/02/07 00:35:04;;;;;;;12.90;11.26;;;;;;;2.81;66.22;100644.08;456649;113;923044;-77
2022/02/07 00:36:07;;;;;;;13.23;12.01;;;;;;;2.80;66.22;100642.39;456204;115;922462;-77
2022/02/07 00:37:11;;;;;;;12.39;11.09;;;;;;;2.76;66.18;100644.55;456507;114;922460;-77
2022/02/07 00:38:18;;;;;;;12.87;11.06;;;;;;;2.76;66.07;100641.00;456712;114;930450;-76
2022/02/07 00:39:28;;;;;;;12.89;11.48;;;;;;;2.74;66.08;100640.34;456532;114;922650;-76
2022/02/07 00:41:45;;;;;;;11.95;10.81;;;;;;;2.72;66.16;100640.50;456773;114;923342;-76
2022/02/07 00:42:58;;;;;;;13.20;11.27;;;;;;;2.73;66.25;100628.73;455265;114;922483;-75
2022/02/07 00:44:09;;;;;;;12.64;11.01;;;;;;;2.75;66.29;100633.96;456435;114;923068;-75
2022/02/07 00:45:14;;;;;;;12.75;11.56;;;;;;;2.75;66.30;100631.27;455875;114;923173;-76
2022/02/07 00:46:12;;;;;;;13.59;12.27;;;;;;;2.77;66.31;100623.84;456577;114;922312;-76
2022/02/07 00:47:15;;;;;;;13.34;12.03;;;;;;;2.79;66.32;100630.77;456838;114;923370;-76
2022/02/07 00:48:22;;;;;;;13.06;11.54;;;;;;;2.81;66.25;100617.97;457284;114;922680;-76
2022/02/07 00:49:27;;;;;;;12.11;10.93;;;;;;;2.84;66.17;100625.73;456294;114;922486;-75
2022/02/07 00:50:33;;;;;;;12.70;11.56;;;;;;;2.84;66.04;100625.73;456773;113;922528;-75
2022/02/07 00:51:36;;;;;;;12.23;11.07;;;;;;;2.83;66.01;100626.73;446512;116;922544;-77
2022/02/07 00:52:39;;;;;;;13.25;11.99;;;;;;;2.84;66.00;100622.20;445373;115;922554;-76
2022/02/07 00:53:43;;;;;;;14.05;12.72;;;;;;;2.84;66.02;100614.96;457424;116;922413;-76
2022/02/07 00:54:46;;;;;;;13.49;12.19;;;;;;;2.86;66.05;100622.89;457246;114;922812;-76
2022/02/07 00:55:49;;;;;;;12.81;11.61;;;;;;;2.86;66.02;100618.34;457183;114;922450;-76
2022/02/07 00:56:52;;;;;;;12.37;11.09;;;;;;;2.87;65.93;100616.47;457599;116;922677;-75
2022/02/07 00:57:55;;;;;;;16.07;11.68;;;;;;;2.87;65.92;100619.16;457795;114;930061;-76
2022/02/07 00:58:59;;;;;;;12.71;11.41;;;;;;;2.87;65.77;100611.92;456783;114;922433;-75
2022/02/07 01:00:03;;;;;;;13.59;11.83;;;;;;;2.85;65.74;100611.27;457067;114;930333;-76
2022/02/07 01:01:08;;;;;;;13.28;11.93;;;;;;;2.86;65.76;100612.12;457308;114;922542;-76
2022/02/07 01:02:13;;;;;;;13.23;11.60;;;;;;;2.86;65.80;100604.88;456017;114;922319;-74
2022/02/07 01:03:17;;;;;;;12.48;10.96;;;;;;;2.88;65.80;100608.23;458101;113;922449;-75
2022/02/07 01:04:20;;;;;;;11.65;10.51;;;;;;;2.90;65.85;100608.08;457550;114;922880;-74
2022/02/07 01:05:27;;;;;;;12.68;10.74;;;;;;;2.92;65.82;100604.20;454504;115;922606;-75
2022/02/07 01:06:30;;;;;;;14.38;12.76;;;;;;;2.93;65.77;100613.97;456440;114;922886;-76
2022/02/07 01:07:35;;;;;;;14.53;12.68;;;;;;;2.91;65.63;100612.47;456643;114;922715;-75
2022/02/07 01:08:44;;;;;;;14.92;13.08;;;;;;;2.90;65.60;100614.31;457145;114;922497;-76
2022/02/07 01:09:51;;;;;;;15.59;12.90;;;;;;;2.88;65.49;100610.92;456500;114;930222;-76
2022/02/07 01:11:02;;;;;;;13.61;12.32;;;;;;;2.87;65.49;100617.31;456771;113;922312;-75
2022/02/07 01:13:18;;;;;;;12.58;11.32;;;;;;;2.82;65.38;100606.20;446088;114;922605;-76
2022/02/07 01:15:48;;;;;;;13.07;11.83;;;;;;;2.73;65.37;100599.11;456980;114;922745;-76
2022/02/07 01:19:50;;;;;;;13.25;12.01;;;;;;;2.70;65.60;100598.61;457162;114;922581;-75
2022/02/07 01:46:13;;;;;;;14.02;12.07;;;;;;;2.55;65.82;100587.61;451691;116;922705;-76
2022/02/07 01:51:00;;;;;;;13.81;12.38;;;;;;;2.30;66.07;100594.75;450769;116;923677;-76
2022/02/07 01:54:20;;;;;;;13.83;12.53;;;;;;;2.31;66.12;100584.84;450436;116;923065;-76
2022/02/07 01:56:35;;;;;;;12.95;11.51;;;;;;;2.30;66.08;100586.69;451114;116;922623;-76
2022/02/07 01:57:39;;;;;;;12.55;11.25;;;;;;;2.31;66.01;100590.22;451708;116;922803;-76
2022/02/07 01:58:43;;;;;;;12.91;11.66;;;;;;;2.31;65.93;100587.53;451522;116;922654;-77
2022/02/07 01:59:46;;;;;;;12.58;11.42;;;;;;;2.31;65.88;100583.00;447590;117;930473;-77
2022/02/07 02:00:51;;;;;;;12.15;10.89;;;;;;;2.33;65.77;100580.12;448041;116;930430;-74
2022/02/07 02:01:54;;;;;;;14.27;11.06;;;;;;;2.32;65.67;100586.50;452240;116;923025;-76
2022/02/07 02:02:58;;;;;;;11.06;10.05;;;;;;;2.33;65.69;100577.43;452336;117;922573;-75
2022/02/07 02:04:04;;;;;;;11.69;10.55;;;;;;;2.33;65.64;100580.12;450643;116;922699;-75
2022/02/07 02:05:08;;;;;;;12.93;11.23;;;;;;;2.33;65.68;100572.89;440995;118;923025;-76
2022/02/07 02:06:13;;;;;;;11.43;10.36;;;;;;;2.33;65.52;100578.28;441383;116;922665;-75
2022/02/07 02:07:21;;;;;;;12.22;11.02;;;;;;;2.35;65.52;100572.74;450173;116;922657;-74
2022/02/07 02:08:24;;;;;;;11.46;10.30;;;;;;;2.36;65.50;100571.74;451947;116;923051;-76
2022/02/07 02:09:29;;;;;;;11.68;10.17;;;;;;;2.36;65.47;100577.13;451470;116;922651;-74
2022/02/07 02:10:35;;;;;;;11.63;10.56;;;;;;;2.37;65.41;100578.81;451731;115;922704;-76
2022/02/07 02:11:40;;;;;;;12.21;11.09;;;;;;;2.37;65.33;100568.87;444014;118;922673;-74
2022/02/07 02:12:56;;;;;;;12.91;11.06;;;;;;;2.36;65.26;100569.05;443791;116;923095;-77
2022/02/07 02:15:15;;;;;;;11.90;10.64;;;;;;;2.34;65.23;100571.89;452114;116;922907;-74
2022/02/07 02:22:08;;;;;;;12.11;11.06;;;;;;;2.37;65.01;100560.80;442617;117;922801;-73
2022/02/07 02:38:17;;;;;;;12.78;11.23;;;;;;;2.20;64.83;100550.16;453357;113;922639;-76
2022/02/07 02:45:48;;;;;;;12.74;11.40;;;;;;;2.21;64.77;100551.81;453775;116;922984;-75
2022/02/07 02:46:56;;;;;;;11.59;10.39;;;;;;;2.22;64.78;100548.13;453982;116;922622;-76
2022/02/07 02:48:05;;;;;;;13.18;11.34;;;;;;;2.23;64.62;100550.66;454844;114;922539;-75
2022/02/07 02:49:08;;;;;;;12.52;10.89;;;;;;;2.23;64.59;100552.51;454457;115;925477;-73
2022/02/07 02:50:32;;;;;;;13.97;11.46;;;;;;;2.22;64.51;100545.44;454563;116;922531;-75
2022/02/07 02:51:35;;;;;;;12.50;11.29;;;;;;;2.21;64.48;100543.75;454823;115;922653;-75
2022/02/07 02:52:38;;;;;;;10.72;9.58;;;;;;;2.19;64.41;100552.00;454238;116;923046;-74
2022/02/07 02:53:43;;;;;;;12.81;10.74;;;;;;;2.18;64.41;100549.46;454923;115;922692;-74
2022/02/07 02:54:46;;;;;;;15.60;11.79;;;;;;;2.16;64.39;100546.08;455718;114;922634;-74
2022/02/07 02:55:50;;;;;;;14.91;10.97;;;;;;;2.15;64.39;100547.11;455034;114;930491;-74
2022/02/07 02:56:54;;;;;;;12.41;10.89;;;;;;;2.14;64.37;100540.89;445360;117;922674;-74
2022/02/07 02:57:59;;;;;;;12.07;10.87;;;;;;;2.12;64.39;100542.88;439235;118;930939;-74
2022/02/07 02:59:05;;;;;;;11.65;10.31;;;;;;;2.11;64.39;100541.19;445283;117;922671;-74
2022/02/07 03:00:12;;;;;;;11.47;10.27;;;;;;;2.10;64.33;100543.03;439891;118;922644;-75
2022/02/07 03:01:15;;;;;;;12.72;11.46;;;;;;;2.09;64.33;100537.84;438772;119;922637;-75
2022/02/07 03:02:29;;;;;;;11.66;10.42;;;;;;;2.08;64.38;100541.53;455319;116;922510;-74
2022/02/07 03:03:32;;;;;;;12.41;10.56;;;;;;;2.06;64.37;100536.30;455934;116;922546;-75
2022/02/07 03:04:35;;;;;;;11.61;10.40;;;;;;;2.05;64.39;100531.08;454715;116;922959;-74
2022/02/07 03:05:39;;;;;;;11.95;10.79;;;;;;;2.04;64.46;100538.30;455318;115;922587;-74
2022/02/07 03:06:43;;;;;;;16.17;11.84;;;;;;;2.02;64.51;100537.64;455784;116;922601;-74
2022/02/07 03:07:46;;;;;;;13.19;11.83;;;;;;;2.01;64.56;100535.95;454924;116;923176;-75
2022/02/07 03:08:50;;;;;;;13.32;11.86;;;;;;;2.01;64.58;100527.88;454777;115;922746;-75
2022/02/07 03:09:55;;;;;;;12.59;11.45;;;;;;;2.00;64.64;100531.56;454197;115;922560;-74
2022/02/07 03:11:03;;;;;;;13.61;12.29;;;;;;;1.99;64.67;100529.88;456128;116;922504;-74
2022/02/07 03:12:05;;;;;;;12.71;11.51;;;;;;;1.99;64.68;100535.25;453446;116;923013;-74
2022/02/07 03:14:21;;;;;;;14.01;12.57;;;;;;;2.00;64.82;100528.87;453115;115;922942;-74
2022/02/07 03:16:42;;;;;;;;;;;;;;;1.98;64.82;100520.15;458439;116;922253;-75
2022/02/07 03:17:47;;;;;;;12.91;11.51;;;;;;;1.98;64.89;100524.68;453586;114;922461;-72
2022/02/07 03:18:50;;;;;;;12.98;11.59;;;;;;;1.94;65.00;100524.14;454525;116;922729;-74
2022/02/07 03:19:53;;;;;;;12.76;11.22;;;;;;;1.94;65.18;100532.20;455457;116;922575;-74
2022/02/07 03:20:57;;;;;;;14.82;11.56;;;;;;;1.93;65.17;100527.83;454843;115;923123;-74
2022/02/07 03:22:00;;;;;;;12.21;11.04;;;;;;;1.92;65.23;100528.01;454767;115;922636;-76
2022/02/07 03:23:05;;;;;;;12.07;10.88;;;;;;;1.93;65.28;100533.20;455293;116;922818;-74
2022/02/07 03:24:09;;;;;;;12.58;11.12;;;;;;;1.93;65.32;100530.52;454675;115;922705;-73
2022/02/07 03:25:14;;;;;;;16.80;11.87;;;;;;;1.94;65.30;100523.30;454159;115;923113;-74
2022/02/07 03:26:21;;;;;;;13.53;11.95;;;;;;;1.94;65.34;100526.83;454515;115;922992;-74
2022/02/07 03:27:26;;;;;;;12.39;10.39;;;;;;;1.95;65.31;100530.36;455456;116;922823;-74
2022/02/07 03:28:31;;;;;;;12.17;10.89;;;;;;;1.95;65.36;100531.20;455403;116;922841;-75
2022/02/07 03:29:34;;;;;;;13.72;11.86;;;;;;;1.96;65.34;100532.05;447038;116;923205;-75
2022/02/07 03:30:38;;;;;;;11.70;10.65;;;;;;;1.97;65.33;100522.98;446754;116;922771;-75
2022/02/07 03:31:43;;;;;;;11.27;10.19;;;;;;;1.97;65.33;100521.14;454499;116;922974;-74
2022/02/07 03:32:48;;;;;;;12.53;11.33;;;;;;;1.98;65.38;100521.99;429354;120;923531;-76
2022/02/07 03:33:51;;;;;;;12.30;11.11;;;;;;;1.99;65.41;100529.03;445715;116;922978;-73
2022/02/07 03:34:54;;;;;;;10.90;9.69;;;;;;;2.03;65.46;100519.66;455443;115;922610;-74
2022/02/07 03:35:57;;;;;;;12.39;10.63;;;;;;;2.02;65.50;100523.34;445920;118;922731;-74
2022/02/07 03:37:01;;;;;;;10.27;9.18;;;;;;;2.03;65.34;100525.03;446071;116;922698;-75
2022/02/07 03:38:07;;;;;;;10.28;9.20;;;;;;;2.03;65.36;100519.66;455606;115;922640;-74
2022/02/07 03:39:11;;;;;;;10.47;9.48;;;;;;;2.04;65.36;100522.16;453699;116;922643;-74
2022/02/07 03:40:15;;;;;;;9.49;8.59;;;;;;;2.05;65.36;100523.86;453238;116;922754;-73
2022/02/07 03:41:19;;;;;;;10.88;9.71;;;;;;;2.06;65.31;100522.86;442582;116;923680;-74
2022/02/07 03:42:22;;;;;;;11.43;9.91;;;;;;;2.08;65.33;100520.86;443845;116;923271;-75
2022/02/07 03:43:27;;;;;;;12.59;11.19;;;;;;;2.09;65.34;100522.52;452351;115;930243;-73
2022/02/07 03:44:30;;;;;;;11.43;10.08;;;;;;;2.13;65.30;100524.91;455884;115;922708;-74
2022/02/07 03:45:34;;;;;;;10.85;9.85;;;;;;;2.13;65.30;100527.59;454577;115;922615;-74
2022/02/07 03:46:39;;;;;;;10.74;9.69;;;;;;;2.15;65.28;100526.41;454102;115;922608;-75
2022/02/07 03:47:42;;;;;;;10.95;9.43;;;;;;;2.16;65.28;100522.72;452704;115;922710;-76
2022/02/07 03:48:46;;;;;;;10.98;9.89;;;;;;;2.17;65.21;100518.19;453000;116;922672;-75
2022/02/07 03:49:49;;;;;;;12.45;10.75;;;;;;;2.18;65.21;100522.56;454542;115;922537;-74
2022/02/07 03:50:52;;;;;;;13.09;10.83;;;;;;;2.18;65.20;100520.72;454873;115;922844;-74
2022/02/07 03:51:55;;;;;;;13.93;10.95;;;;;;;2.18;65.18;100520.72;454939;116;922652;-74
2022/02/07 03:52:58;;;;;;;11.31;10.21;;;;;;;2.19;65.12;100519.72;444328;117;922823;-74
2022/02/07 03:54:03;;;;;;;12.33;10.24;;;;;;;2.20;65.18;100517.88;445650;116;922664;-73
2022/02/07 03:55:07;;;;;;;10.65;9.65;;;;;;;2.20;65.15;100520.56;454280;115;922713;-76
2022/02/07 03:56:11;;;;;;;11.78;9.49;;;;;;;2.21;65.12;100530.30;454828;116;922943;-74
2022/02/07 03:57:16;;;;;;;12.28;10.03;;;;;;;2.21;65.12;100527.61;454623;115;922599;-75
2022/02/07 03:58:21;;;;;;;10.45;8.49;;;;;;;2.22;65.08;100521.23;446179;117;922730;-74
2022/02/07 03:59:25;;;;;;;9.86;8.92;;;;;;;2.23;65.14;100528.30;447454;116;922938;-75
2022/02/07 04:00:28;;;;;;;12.31;9.47;;;;;;;2.24;65.16;100522.77;453839;116;923034;-74
2022/02/07 04:01:36;;;;;;;10.41;9.36;;;;;;;2.25;65.15;100524.45;453715;115;923179;-76
2022/02/07 04:02:43;;;;;;;10.24;9.19;;;;;;;2.28;65.04;100521.42;454216;115;922696;-76
2022/02/07 04:03:46;;;;;;;11.19;9.40;;;;;;;2.28;64.99;100525.96;454806;116;930583;-75
2022/02/07 04:04:57;;;;;;;11.41;10.01;;;;;;;2.29;64.92;100519.58;455219;116;923221;-73
2022/02/07 04:06:05;;;;;;;10.62;9.60;;;;;;;2.29;64.90;100519.58;453871;115;922648;-76
2022/02/07 04:07:07;;;;;;;10.64;9.64;;;;;;;2.29;64.87;100517.73;453965;114;922658;-73
2022/02/07 04:08:13;;;;;;;11.52;9.64;;;;;;;2.30;64.99;100519.42;455298;116;922660;-75
2022/02/07 04:09:21;;;;;;;10.74;9.50;;;;;;;2.31;64.88;100518.42;453517;116;922686;-73
2022/02/07 04:10:25;;;;;;;11.32;9.76;;;;;;;2.32;64.85;100516.55;453634;115;922752;-74
2022/02/07 04:11:35;;;;;;;10.17;9.19;;;;;;;2.32;64.76;100516.55;454246;116;922936;-73
2022/02/07 04:12:34;;;;;;;10.11;8.84;;;;;;;2.33;64.74;100504.79;444743;117;922759;-74
2022/02/07 04:13:40;;;;;;;10.84;8.57;;;;;;;2.33;64.66;100515.55;446170;116;922739;-76
2022/02/07 04:14:44;;;;;;;11.93;9.68;;;;;;;2.32;64.62;100511.17;454520;115;930591;-75
2022/02/07 04:15:51;;;;;;;11.45;8.48;;;;;;;2.33;64.60;100512.86;454612;116;922602;-75
2022/02/07 04:16:54;;;;;;;9.18;8.26;;;;;;;2.33;64.64;100507.48;448143;116;923110;-75
2022/02/07 04:18:08;;;;;;;10.43;8.87;;;;;;;2.32;64.60;100503.94;447835;116;923420;-74
2022/02/07 04:19:19;;;;;;;13.43;9.13;;;;;;;2.32;64.55;100511.17;454515;114;922581;-75
2022/02/07 04:20:22;;;;;;;12.46;9.71;;;;;;;2.32;64.56;100512.02;455385;116;922627;-73
2022/02/07 04:21:29;;;;;;;14.46;10.03;;;;;;;2.33;64.62;100511.02;453775;116;922730;-75
2022/02/07 04:22:31;;;;;;;12.82;9.56;;;;;;;2.34;64.62;100510.02;454198;115;930515;-75
2022/02/07 04:23:36;;;;;;;14.88;11.01;;;;;;;2.36;64.60;100507.17;455024;116;922645;-75
2022/02/07 04:24:44;;;;;;;12.10;9.57;;;;;;;2.37;64.61;100504.30;449503;116;922748;-74
2022/02/07 04:25:49;;;;;;;13.16;9.79;;;;;;;2.38;64.57;100510.52;454264;115;922620;-74
2022/02/07 04:26:54;;;;;;;11.75;9.66;;;;;;;2.38;64.54;100511.36;453859;116;922720;-75
2022/02/07 04:27:57;;;;;;;11.38;9.25;;;;;;;2.38;64.49;100511.36;453405;116;923045;-76
2022/02/07 04:29:02;;;;;;;11.13;8.94;;;;;;;2.40;64.42;100511.20;453349;116;922744;-75
2022/02/07 04:30:10;;;;;;;12.49;9.16;;;;;;;2.38;64.37;100510.52;454348;115;922831;-74
2022/02/07 04:31:15;;;;;;;10.44;9.34;;;;;;;2.36;64.28;100513.39;455062;115;923476;-74
2022/02/07 04:32:19;;;;;;;12.54;10.49;;;;;;;2.33;64.24;100508.33;455113;116;922573;-75
2022/02/07 04:33:23;;;;;;;11.10;9.17;;;;;;;2.34;64.33;100509.17;454709;116;923156;-73
2022/02/07 04:34:27;;;;;;;9.16;8.25;;;;;;;2.32;64.31;100505.79;453781;115;922832;-75
2022/02/07 04:35:31;;;;;;;10.58;9.38;;;;;;;2.30;64.25;100511.36;454179;116;922730;-74
2022/02/07 04:36:38;;;;;;;8.99;7.10;;;;;;;2.30;64.17;100513.20;451740;116;922980;-75
2022/02/07 04:37:41;;;;;;;8.15;7.10;;;;;;;2.29;64.22;100508.82;442248;117;922777;-75
2022/02/07 04:38:44;;;;;;;8.30;7.25;;;;;;;2.27;64.23;100513.51;443407;117;922792;-73
2022/02/07 04:39:51;;;;;;;8.73;7.14;;;;;;;2.24;64.24;100506.62;451251;115;922560;-76
2022/02/07 04:40:56;;;;;;;11.89;9.38;;;;;;;2.25;64.24;100510.16;450256;116;922577;-74
2022/02/07 04:42:04;;;;;;;9.22;8.24;;;;;;;2.23;64.25;100513.00;450180;116;922686;-76
2022/02/07 04:43:07;;;;;;;9.89;7.93;;;;;;;2.23;64.27;100515.70;450624;116;922664;-74
2022/02/07 04:44:15;;;;;;;8.39;7.59;;;;;;;2.22;64.24;100507.78;451266;116;922563;-75
2022/02/07 04:45:37;;;;;;;7.22;6.46;;;;;;;2.19;64.25;100502.73;442902;118;923473;-73
2022/02/07 04:50:39;;;;;;;7.32;6.67;;;;;;;2.14;64.20;100499.70;450206;115;922705;-75
2022/02/07 04:53:15;;;;;;;7.29;6.58;;;;;;;2.08;64.28;100501.19;428304;121;923794;-74
2022/02/07 04:54:30;;;;;;;8.57;6.55;;;;;;;2.06;64.33;100504.03;427810;121;922992;-74
2022/02/07 04:55:34;;;;;;;8.71;7.76;;;;;;;2.03;64.39;100509.75;428019;122;922791;-75
2022/02/07 04:57:46;;;;;;;8.97;7.65;;;;;;;2.04;64.55;100505.22;428906;121;922906;-76
2022/02/07 05:00:07;;;;;;;;;;;;;;;2.04;64.53;100500.65;454014;117;922557;-76
2022/02/07 05:02:41;;;;;;;7.09;6.39;;;;;;;2.03;64.62;100496.30;441895;119;922896;-75
2022/02/07 05:03:40;;;;;;;8.03;6.53;;;;;;;2.01;64.75;100509.05;440736;117;923024;-75
2022/02/07 05:04:46;;;;;;;8.67;7.76;;;;;;;2.02;64.75;100508.06;450564;115;923023;-75
2022/02/07 05:13:50;;;;;;;9.71;7.54;;;;;;;2.08;64.75;100515.48;450238;115;923170;-75
2022/02/07 05:14:55;;;;;;;8.46;6.86;;;;;;;2.09;64.73;100521.70;449719;117;923190;-75
2022/02/07 05:15:59;;;;;;;7.65;6.89;;;;;;;2.08;64.76;100515.48;450789;115;922838;-74
2022/02/07 05:17:06;;;;;;;7.27;6.47;;;;;;;2.09;64.77;100514.45;450866;115;930563;-74
2022/02/07 05:18:09;;;;;;;10.09;7.98;;;;;;;2.10;64.74;100515.30;447751;116;922674;-75
2022/02/07 05:19:14;;;;;;;9.42;7.04;;;;;;;2.13;64.73;100519.52;448839;116;922621;-74
2022/02/07 05:20:20;;;;;;;8.38;7.56;;;;;;;2.15;64.70;100521.03;451268;115;923072;-75
2022/02/07 05:21:42;;;;;;;9.54;6.99;;;;;;;2.15;64.64;100512.96;450253;116;922661;-76
2022/02/07 05:23:02;;;;;;;8.15;6.86;;;;;;;2.17;64.74;100515.50;449826;116;922641;-74
2022/02/07 05:24:19;;;;;;;7.22;6.48;;;;;;;2.17;64.72;100510.96;421796;123;922937;-75
2022/02/07 05:25:33;;;;;;;6.86;6.19;;;;;;;2.18;64.73;100515.34;416567;122;923024;-75
2022/02/07 05:26:43;;;;;;;8.12;6.31;;;;;;;2.18;64.74;100515.34;426131;123;922886;-75
2022/02/07 05:27:48;;;;;;;7.67;6.77;;;;;;;2.18;64.74;100509.96;446064;116;922557;-75
2022/02/07 05:28:59;;;;;;;6.86;6.04;;;;;;;2.20;64.81;100507.12;434994;116;923038;-76
2022/02/07 05:30:06;;;;;;;8.62;7.34;;;;;;;2.22;64.83;100513.16;447458;116;922726;-78
2022/02/07 05:31:14;;;;;;;7.29;6.61;;;;;;;2.25;64.75;100510.16;450583;116;922691;-76
2022/02/07 05:32:19;;;;;;;6.77;6.17;;;;;;;2.27;64.78;100508.13;450515;116;922516;-74
2022/02/07 05:33:39;;;;;;;7.54;6.69;;;;;;;2.29;64.79;100511.51;450827;116;922720;-74
2022/02/07 05:34:45;;;;;;;8.22;7.06;;;;;;;2.29;64.77;100506.97;450329;116;922664;-77
2022/02/07 05:36:10;;;;;;;7.08;6.43;;;;;;;2.32;64.77;100517.39;449320;116;922957;-74
2022/02/07 05:37:28;;;;;;;6.80;5.54;;;;;;;2.35;64.78;100518.93;453657;115;923142;-74
2022/02/07 05:38:36;;;;;;;6.83;6.16;;;;;;;2.37;64.76;100516.94;453543;114;922874;-73
2022/02/07 05:40:05;;;;;;;7.61;6.92;;;;;;;2.37;64.74;100517.75;425735;123;923124;-76
2022/02/07 05:41:12;;;;;;;7.40;6.61;;;;;;;2.51;64.76;100516.28;471638;110;947360;-74
2022/02/07 05:42:23;;;;;;;7.31;6.61;;;;;;;2.42;64.80;100511.90;446127;116;922741;-74
2022/02/07 05:43:37;;;;;;;7.84;6.96;;;;;;;2.46;64.82;100514.09;462151;112;923016;-73
2022/02/07 05:44:45;;;;;;;10.79;8.01;;;;;;;2.49;64.64;100505.67;459572;112;923109;-71
2022/02/07 05:46:06;;;;;;;8.41;7.62;;;;;;;2.51;64.52;100505.52;456076;114;923455;-74
2022/02/07 05:47:13;;;;;;;8.88;8.09;;;;;;;2.54;64.55;100498.98;455908;115;922751;-76
2022/02/07 05:48:33;;;;;;;9.10;6.53;;;;;;;2.55;64.39;100501.48;456109;115;922830;-75
2022/02/07 05:49:44;;;;;;;;;;;;;;;2.55;64.35;100496.10;446595;117;930383;-73
2022/02/07 05:50:55;;;;;;;8.01;7.21;;;;;;;2.54;64.36;100497.10;452980;115;922421;-71
2022/02/07 05:52:00;;;;;;;9.72;7.67;;;;;;;2.51;64.40;100500.98;456900;115;922578;-74
2022/02/07 05:53:08;;;;;;;9.89;7.75;;;;;;;2.51;64.40;100506.36;456778;113;922637;-75
2022/02/07 05:54:28;;;;;;;9.02;7.36;;;;;;;2.50;64.41;100517.28;425543;123;922773;-75
2022/02/07 05:55:42;;;;;;;7.99;7.18;;;;;;;2.49;64.40;100529.89;426609;122;925139;-73
2022/02/07 05:56:48;;;;;;;9.07;7.20;;;;;;;2.47;64.50;100526.55;424498;115;922816;-73
2022/02/07 05:57:53;;;;;;;6.98;6.34;;;;;;;2.48;64.49;100522.01;454950;114;922668;-70
2022/02/07 05:59:14;;;;;;;7.20;6.48;;;;;;;2.48;64.56;100528.20;456541;114;922686;-75
2022/02/07 06:00:37;;;;;;;10.05;7.70;;;;;;;2.50;64.65;100520.82;456619;114;923269;-74
2022/02/07 06:01:42;;;;;;;8.41;7.66;;;;;;;2.54;64.74;100528.58;455835;114;922782;-73
2022/02/07 06:02:46;;;;;;;10.14;8.86;;;;;;;2.58;64.79;100524.55;456209;114;922562;-74
2022/02/07 06:03:51;;;;;;;10.36;9.28;;;;;;;2.60;64.81;100520.67;451680;115;922625;-72
2022/02/07 06:04:54;;;;;;;10.79;9.76;;;;;;;2.64;64.76;100513.97;455879;115;922718;-76
2022/02/07 06:05:58;;;;;;;10.88;9.83;;;;;;;2.68;64.75;100518.01;456293;114;923784;-73
2022/02/07 06:07:02;;;;;;;10.14;9.21;;;;;;;2.73;64.74;100518.35;457874;115;922548;-74
2022/02/07 06:08:05;;;;;;;11.08;10.18;;;;;;;2.77;64.75;100508.92;457766;115;924768;-73
2022/02/07 06:09:10;;;;;;;11.36;10.26;;;;;;;2.82;64.71;100511.95;457960;113;922925;-75
2022/02/07 06:10:15;;;;;;;11.83;10.77;;;;;;;2.87;64.62;100506.06;457977;114;922794;-73
2022/02/07 06:11:20;;;;;;;9.84;8.89;;;;;;;2.91;64.62;100502.90;457672;114;922900;-73
2022/02/07 06:12:24;;;;;;;9.65;8.73;;;;;;;2.94;64.56;100502.55;458670;114;922553;-74
2022/02/07 06:13:27;;;;;;;12.19;9.32;;;;;;;2.97;64.52;100497.84;457754;115;923113;-73
2022/02/07 06:14:32;;;;;;;10.10;8.39;;;;;;;2.98;64.50;100504.92;457454;114;922657;-75
2022/02/07 06:15:36;;;;;;;9.69;8.78;;;;;;;2.98;64.54;100499.53;457499;114;923134;-74
2022/02/07 06:16:39;;;;;;;9.52;8.62;;;;;;;3.00;64.56;100497.50;448544;117;930689;-73
2022/02/07 06:17:48;;;;;;;10.14;9.19;;;;;;;3.01;64.59;100491.95;448883;114;922612;-74
2022/02/07 06:18:50;;;;;;;8.99;8.13;;;;;;;3.03;64.58;100491.80;446898;116;930727;-73
2022/02/07 06:19:55;;;;;;;8.72;7.87;;;;;;;3.03;64.58;100494.48;449370;115;922587;-72
2022/02/07 06:21:04;;;;;;;8.54;7.76;;;;;;;3.05;64.60;100492.45;457124;115;922639;-74
2022/02/07 06:22:07;;;;;;;8.93;8.03;;;;;;;3.07;64.67;100487.74;448108;117;922613;-72
2022/02/07 06:23:12;;;;;;;8.98;7.96;;;;;;;3.10;64.68;100482.00;448988;116;922733;-71
2022/02/07 06:24:17;;;;;;;8.64;7.11;;;;;;;3.12;64.67;100482.69;456080;114;922692;-74
2022/02/07 06:25:20;;;;;;;8.19;7.37;;;;;;;3.15;64.66;100490.42;456673;115;922596;-73
2022/02/07 06:26:25;;;;;;;11.87;7.85;;;;;;;3.18;64.69;100482.02;456797;114;923034;-72
2022/02/07 06:27:30;;;;;;;8.41;7.61;;;;;;;3.20;64.70;100477.28;456226;115;923116;-74
2022/02/07 06:28:35;;;;;;;9.17;8.07;;;;;;;3.22;64.61;100475.27;456737;115;923224;-74
2022/02/07 06:29:41;;;;;;;9.62;8.73;;;;;;;3.22;64.57;100473.41;455903;114;922752;-74
2022/02/07 06:30:45;;;;;;;8.96;8.14;;;;;;;3.25;64.59;100467.67;456290;114;922856;-74